sensor_id;sensor_type;location;lat;lon;timestamp;temperature;humidity
37956;DHT22;23776;51.592;7.180;2022-07-29T00:01:40;19.70;34.90
37956;DHT22;23776;51.592;7.180;2022-07-29T00:04:05;19.70;34.90
37956;DHT22;23776;51.592;7.180;2022-07-29T00:06:31;19.70;30.30
37956;DHT22;23776;51.592;7.180;2022-07-29T00:08:56;19.80;29.00
37956;DHT22;23776;51.592;7.180;2022-07-29T00:11:22;19.70;30.80
37956;DHT22;23776;51.592;7.180;2022-07-29T00:13:48;19.60;30.20
37956;DHT22;23776;51.592;7.180;2022-07-29T00:16:13;19.60;29.50
37956;DHT22;23776;51.592;7.180;2022-07-29T00:18:39;19.60;32.00
37956;DHT22;23776;51.592;7.180;2022-07-29T00:21:04;19.50;33.60
37956;DHT22;23776;51.592;7.180;2022-07-29T00:23:30;19.50;36.50
37956;DHT22;23776;51.592;7.180;2022-07-29T00:25:56;19.50;47.60
37956;DHT22;23776;51.592;7.180;2022-07-29T00:28:21;19.50;41.50
37956;DHT22;23776;51.592;7.180;2022-07-29T00:30:47;19.50;40.80
37956;DHT22;23776;51.592;7.180;2022-07-29T00:33:12;19.40;44.10
37956;DHT22;23776;51.592;7.180;2022-07-29T00:35:38;19.50;53.90
37956;DHT22;23776;51.592;7.180;2022-07-29T00:38:14;19.40;45.70
37956;DHT22;23776;51.592;7.180;2022-07-29T00:40:41;19.40;55.50
37956;DHT22;23776;51.592;7.180;2022-07-29T00:43:06;19.40;46.10
37956;DHT22;23776;51.592;7.180;2022-07-29T00:45:32;19.40;44.90
37956;DHT22;23776;51.592;7.180;2022-07-29T00:47:58;19.40;45.70
37956;DHT22;23776;51.592;7.180;2022-07-29T00:50:23;19.40;48.70
37956;DHT22;23776;51.592;7.180;2022-07-29T00:52:50;19.40;65.40
37956;DHT22;23776;51.592;7.180;2022-07-29T00:55:17;19.30;55.40
37956;DHT22;23776;51.592;7.180;2022-07-29T00:57:43;19.30;64.80
37956;DHT22;23776;51.592;7.180;2022-07-29T01:00:13;19.30;91.60
37956;DHT22;23776;51.592;7.180;2022-07-29T01:02:39;19.30;79.00
37956;DHT22;23776;51.592;7.180;2022-07-29T01:05:05;19.30;80.50
37956;DHT22;23776;51.592;7.180;2022-07-29T01:07:35;19.30;91.40
37956;DHT22;23776;51.592;7.180;2022-07-29T01:10:04;19.20;88.80
37956;DHT22;23776;51.592;7.180;2022-07-29T01:12:30;19.20;81.80
37956;DHT22;23776;51.592;7.180;2022-07-29T01:15:01;19.10;90.30
37956;DHT22;23776;51.592;7.180;2022-07-29T01:23:34;19.00;99.90
37956;DHT22;23776;51.592;7.180;2022-07-29T01:26:27;19.00;99.90
37956;DHT22;23776;51.592;7.180;2022-07-29T01:32:03;18.80;99.90
37956;DHT22;23776;51.592;7.180;2022-07-29T01:34:52;18.80;99.90
37956;DHT22;23776;51.592;7.180;2022-07-29T01:37:22;18.80;99.90
37956;DHT22;23776;51.592;7.180;2022-07-29T01:39:52;18.80;99.90
37956;DHT22;23776;51.592;7.180;2022-07-29T01:44:56;18.80;99.90
37956;DHT22;23776;51.592;7.180;2022-07-29T01:47:26;18.70;99.90
37956;DHT22;23776;51.592;7.180;2022-07-29T01:49:56;18.70;99.90
37956;DHT22;23776;51.592;7.180;2022-07-29T01:52:28;18.70;99.90
37956;DHT22;23776;51.592;7.180;2022-07-29T01:54:59;18.70;99.90
37956;DHT22;23776;51.592;7.180;2022-07-29T01:57:28;18.60;99.90
37956;DHT22;23776;51.592;7.180;2022-07-29T01:59:56;18.70;99.90
37956;DHT22;23776;51.592;7.180;2022-07-29T02:02:23;16.00;99.90
37956;DHT22;23776;51.592;7.180;2022-07-29T02:04:50;18.60;99.90
37956;DHT22;23776;51.592;7.180;2022-07-29T02:07:21;18.50;99.90
37956;DHT22;23776;51.592;7.180;2022-07-29T02:09:47;18.50;99.90
37956;DHT22;23776;51.592;7.180;2022-07-29T02:12:17;18.50;99.90
37956;DHT22;23776;51.592;7.180;2022-07-29T02:14:52;18.50;99.90
37956;DHT22;23776;51.592;7.180;2022-07-29T02:17:23;18.40;99.90
37956;DHT22;23776;51.592;7.180;2022-07-29T02:19:52;18.50;99.90
37956;DHT22;23776;51.592;7.180;2022-07-29T02:22:21;18.50;99.90
37956;DHT22;23776;51.592;7.180;2022-07-29T02:24:49;18.50;99.90
37956;DHT22;23776;51.592;7.180;2022-07-29T02:27:17;18.50;99.90
37956;DHT22;23776;51.592;7.180;2022-07-29T02:29:45;18.40;99.90
37956;DHT22;23776;51.592;7.180;2022-07-29T02:32:13;18.40;99.90
37956;DHT22;23776;51.592;7.180;2022-07-29T02:34:40;18.30;99.90
37956;DHT22;23776;51.592;7.180;2022-07-29T02:37:09;18.30;99.90
37956;DHT22;23776;51.592;7.180;2022-07-29T02:39:36;18.30;99.90
37956;DHT22;23776;51.592;7.180;2022-07-29T02:42:08;18.30;99.90
37956;DHT22;23776;51.592;7.180;2022-07-29T02:44:35;18.30;99.90
37956;DHT22;23776;51.592;7.180;2022-07-29T02:50:03;18.30;1.00
37956;DHT22;23776;51.592;7.180;2022-07-29T02:52:45;18.30;1.00
37956;DHT22;23776;51.592;7.180;2022-07-29T02:55:15;18.30;1.00
37956;DHT22;23776;51.592;7.180;2022-07-29T03:00:09;18.20;99.90
37956;DHT22;23776;51.592;7.180;2022-07-29T03:02:38;18.10;99.90
37956;DHT22;23776;51.592;7.180;2022-07-29T03:05:09;18.20;1.00
37956;DHT22;23776;51.592;7.180;2022-07-29T03:07:36;18.20;1.00
37956;DHT22;23776;51.592;7.180;2022-07-29T03:10:04;18.20;1.00
37956;DHT22;23776;51.592;7.180;2022-07-29T03:12:30;18.20;99.90
37956;DHT22;23776;51.592;7.180;2022-07-29T03:14:56;18.20;1.00
37956;DHT22;23776;51.592;7.180;2022-07-29T03:17:23;18.20;1.00
37956;DHT22;23776;51.592;7.180;2022-07-29T03:19:49;18.20;1.00
37956;DHT22;23776;51.592;7.180;2022-07-29T03:22:15;18.20;1.00
37956;DHT22;23776;51.592;7.180;2022-07-29T03:24:41;18.30;1.00
37956;DHT22;23776;51.592;7.180;2022-07-29T03:27:06;18.30;99.90
37956;DHT22;23776;51.592;7.180;2022-07-29T03:29:32;18.30;99.90
37956;DHT22;23776;51.592;7.180;2022-07-29T03:31:58;18.30;35.00
37956;DHT22;23776;51.592;7.180;2022-07-29T03:34:24;18.20;1.00
37956;DHT22;23776;51.592;7.180;2022-07-29T03:36:49;18.20;65.90
37956;DHT22;23776;51.592;7.180;2022-07-29T03:39:21;18.20;99.90
37956;DHT22;23776;51.592;7.180;2022-07-29T03:41:50;18.30;99.90
37956;DHT22;23776;51.592;7.180;2022-07-29T03:44:17;18.20;1.00
37956;DHT22;23776;51.592;7.180;2022-07-29T03:46:46;18.10;1.00
37956;DHT22;23776;51.592;7.180;2022-07-29T03:49:15;17.90;1.00
37956;DHT22;23776;51.592;7.180;2022-07-29T03:51:41;17.90;1.00
37956;DHT22;23776;51.592;7.180;2022-07-29T03:54:07;17.80;1.00
37956;DHT22;23776;51.592;7.180;2022-07-29T03:56:38;17.80;1.00
37956;DHT22;23776;51.592;7.180;2022-07-29T03:59:05;17.80;1.00
37956;DHT22;23776;51.592;7.180;2022-07-29T04:01:33;17.70;1.00
37956;DHT22;23776;51.592;7.180;2022-07-29T04:04:03;17.70;1.00
37956;DHT22;23776;51.592;7.180;2022-07-29T04:06:40;17.70;1.00
37956;DHT22;23776;51.592;7.180;2022-07-29T04:09:06;17.70;1.00
37956;DHT22;23776;51.592;7.180;2022-07-29T04:11:32;17.70;1.00
37956;DHT22;23776;51.592;7.180;2022-07-29T04:13:58;17.80;1.00
37956;DHT22;23776;51.592;7.180;2022-07-29T04:16:23;17.70;1.00
37956;DHT22;23776;51.592;7.180;2022-07-29T04:18:49;17.70;1.00
37956;DHT22;23776;51.592;7.180;2022-07-29T04:21:14;17.70;1.00
37956;DHT22;23776;51.592;7.180;2022-07-29T04:23:40;17.70;63.80
37956;DHT22;23776;51.592;7.180;2022-07-29T04:26:06;17.70;99.90
37956;DHT22;23776;51.592;7.180;2022-07-29T04:28:35;17.70;1.00
37956;DHT22;23776;51.592;7.180;2022-07-29T04:31:00;17.60;99.90
37956;DHT22;23776;51.592;7.180;2022-07-29T04:33:26;17.60;1.00
37956;DHT22;23776;51.592;7.180;2022-07-29T04:35:51;17.60;99.90
37956;DHT22;23776;51.592;7.180;2022-07-29T04:38:17;17.70;1.00
37956;DHT22;23776;51.592;7.180;2022-07-29T04:40:42;17.60;1.00
37956;DHT22;23776;51.592;7.180;2022-07-29T04:43:08;17.50;1.00
37956;DHT22;23776;51.592;7.180;2022-07-29T04:45:34;17.50;1.00
37956;DHT22;23776;51.592;7.180;2022-07-29T04:48:00;17.50;1.00
37956;DHT22;23776;51.592;7.180;2022-07-29T04:50:25;17.50;1.00
37956;DHT22;23776;51.592;7.180;2022-07-29T04:52:51;17.50;99.90
37956;DHT22;23776;51.592;7.180;2022-07-29T04:55:17;17.50;99.90
37956;DHT22;23776;51.592;7.180;2022-07-29T04:57:43;17.50;99.90
37956;DHT22;23776;51.592;7.180;2022-07-29T05:00:09;17.50;99.90
37956;DHT22;23776;51.592;7.180;2022-07-29T05:02:35;17.50;99.90
37956;DHT22;23776;51.592;7.180;2022-07-29T05:05:00;17.10;1.00
37956;DHT22;23776;51.592;7.180;2022-07-29T05:07:26;17.00;1.00
37956;DHT22;23776;51.592;7.180;2022-07-29T05:09:51;16.90;1.00
37956;DHT22;23776;51.592;7.180;2022-07-29T05:12:18;16.80;1.00
37956;DHT22;23776;51.592;7.180;2022-07-29T05:14:43;16.80;99.90
37956;DHT22;23776;51.592;7.180;2022-07-29T05:17:09;16.80;99.90
37956;DHT22;23776;51.592;7.180;2022-07-29T05:19:35;16.70;99.90
37956;DHT22;23776;51.592;7.180;2022-07-29T05:22:00;16.70;14.20
37956;DHT22;23776;51.592;7.180;2022-07-29T05:24:26;16.70;1.00
37956;DHT22;23776;51.592;7.180;2022-07-29T05:26:52;16.70;99.90
37956;DHT22;23776;51.592;7.180;2022-07-29T05:29:17;16.50;99.90
37956;DHT22;23776;51.592;7.180;2022-07-29T05:31:43;16.50;99.90
37956;DHT22;23776;51.592;7.180;2022-07-29T05:34:09;16.00;99.90
37956;DHT22;23776;51.592;7.180;2022-07-29T05:36:34;16.60;1.00
37956;DHT22;23776;51.592;7.180;2022-07-29T05:39:00;16.70;99.90
37956;DHT22;23776;51.592;7.180;2022-07-29T05:41:25;16.80;99.90
37956;DHT22;23776;51.592;7.180;2022-07-29T05:43:51;16.80;99.90
37956;DHT22;23776;51.592;7.180;2022-07-29T05:46:17;16.80;99.90
37956;DHT22;23776;51.592;7.180;2022-07-29T05:48:42;17.90;99.90
37956;DHT22;23776;51.592;7.180;2022-07-29T05:51:08;16.90;99.90
37956;DHT22;23776;51.592;7.180;2022-07-29T05:53:34;16.90;99.90
37956;DHT22;23776;51.592;7.180;2022-07-29T05:56:03;17.00;99.90
37956;DHT22;23776;51.592;7.180;2022-07-29T05:58:29;17.10;1.00
37956;DHT22;23776;51.592;7.180;2022-07-29T06:00:55;17.10;99.90
37956;DHT22;23776;51.592;7.180;2022-07-29T06:03:25;17.10;1.00
37956;DHT22;23776;51.592;7.180;2022-07-29T06:05:50;17.10;99.90
37956;DHT22;23776;51.592;7.180;2022-07-29T06:08:16;17.10;99.90
37956;DHT22;23776;51.592;7.180;2022-07-29T06:10:42;17.20;99.90
37956;DHT22;23776;51.592;7.180;2022-07-29T06:13:08;17.20;99.90
37956;DHT22;23776;51.592;7.180;2022-07-29T06:15:34;17.20;99.90
37956;DHT22;23776;51.592;7.180;2022-07-29T06:18:00;17.30;99.90
37956;DHT22;23776;51.592;7.180;2022-07-29T06:20:25;17.40;1.00
37956;DHT22;23776;51.592;7.180;2022-07-29T06:22:52;17.40;99.90
37956;DHT22;23776;51.592;7.180;2022-07-29T06:25:18;17.60;99.90
37956;DHT22;23776;51.592;7.180;2022-07-29T06:27:43;17.60;99.90
37956;DHT22;23776;51.592;7.180;2022-07-29T06:30:09;17.60;98.80
37956;DHT22;23776;51.592;7.180;2022-07-29T06:32:35;17.70;1.00
37956;DHT22;23776;51.592;7.180;2022-07-29T06:35:01;17.70;99.90
37956;DHT22;23776;51.592;7.180;2022-07-29T06:37:26;17.70;99.90
37956;DHT22;23776;51.592;7.180;2022-07-29T06:39:52;17.70;99.90
37956;DHT22;23776;51.592;7.180;2022-07-29T06:42:42;17.90;99.90
37956;DHT22;23776;51.592;7.180;2022-07-29T06:45:08;17.90;82.80
37956;DHT22;23776;51.592;7.180;2022-07-29T06:47:34;17.90;99.90
37956;DHT22;23776;51.592;7.180;2022-07-29T06:49:59;18.00;49.30
37956;DHT22;23776;51.592;7.180;2022-07-29T06:52:25;18.00;1.00
37956;DHT22;23776;51.592;7.180;2022-07-29T06:54:51;18.10;99.90
37956;DHT22;23776;51.592;7.180;2022-07-29T06:57:16;18.10;1.00
37956;DHT22;23776;51.592;7.180;2022-07-29T06:59:42;18.20;99.90
37956;DHT22;23776;51.592;7.180;2022-07-29T07:02:07;18.20;23.20
37956;DHT22;23776;51.592;7.180;2022-07-29T07:04:33;18.20;1.00
37956;DHT22;23776;51.592;7.180;2022-07-29T07:06:59;18.30;99.90
37956;DHT22;23776;51.592;7.180;2022-07-29T07:09:25;18.30;99.90
37956;DHT22;23776;51.592;7.180;2022-07-29T07:11:50;18.40;1.00
37956;DHT22;23776;51.592;7.180;2022-07-29T07:14:16;18.40;1.00
37956;DHT22;23776;51.592;7.180;2022-07-29T07:16:42;18.50;43.00
37956;DHT22;23776;51.592;7.180;2022-07-29T07:19:07;18.50;1.00
37956;DHT22;23776;51.592;7.180;2022-07-29T07:21:33;18.60;1.00
37956;DHT22;23776;51.592;7.180;2022-07-29T07:23:59;18.50;99.90
37956;DHT22;23776;51.592;7.180;2022-07-29T07:26:25;18.60;99.90
37956;DHT22;23776;51.592;7.180;2022-07-29T07:28:51;18.70;99.90
37956;DHT22;23776;51.592;7.180;2022-07-29T07:31:17;18.70;99.90
37956;DHT22;23776;51.592;7.180;2022-07-29T07:33:42;18.80;99.90
37956;DHT22;23776;51.592;7.180;2022-07-29T07:36:08;18.90;1.00
37956;DHT22;23776;51.592;7.180;2022-07-29T07:38:33;18.90;1.00
37956;DHT22;23776;51.592;7.180;2022-07-29T07:41:00;19.10;1.00
37956;DHT22;23776;51.592;7.180;2022-07-29T07:43:26;19.20;99.90
37956;DHT22;23776;51.592;7.180;2022-07-29T07:45:51;19.30;99.90
37956;DHT22;23776;51.592;7.180;2022-07-29T07:48:17;19.50;82.40
37956;DHT22;23776;51.592;7.180;2022-07-29T07:50:42;19.50;99.90
37956;DHT22;23776;51.592;7.180;2022-07-29T07:53:09;19.60;99.90
37956;DHT22;23776;51.592;7.180;2022-07-29T07:55:40;19.70;1.00
37956;DHT22;23776;51.592;7.180;2022-07-29T07:58:07;19.80;1.00
37956;DHT22;23776;51.592;7.180;2022-07-29T08:00:33;19.80;99.90
37956;DHT22;23776;51.592;7.180;2022-07-29T08:02:58;19.90;99.90
37956;DHT22;23776;51.592;7.180;2022-07-29T08:05:24;20.00;99.90
37956;DHT22;23776;51.592;7.180;2022-07-29T08:07:49;20.10;99.90
37956;DHT22;23776;51.592;7.180;2022-07-29T08:10:17;20.20;99.90
37956;DHT22;23776;51.592;7.180;2022-07-29T08:13:04;20.30;93.60
37956;DHT22;23776;51.592;7.180;2022-07-29T08:15:30;20.20;67.60
37956;DHT22;23776;51.592;7.180;2022-07-29T08:17:56;20.30;83.20
37956;DHT22;23776;51.592;7.180;2022-07-29T08:20:21;20.40;20.20
37956;DHT22;23776;51.592;7.180;2022-07-29T08:22:47;20.50;39.40
37956;DHT22;23776;51.592;7.180;2022-07-29T08:25:12;20.60;1.00
37956;DHT22;23776;51.592;7.180;2022-07-29T08:27:38;20.60;1.00
37956;DHT22;23776;51.592;7.180;2022-07-29T08:30:04;20.70;99.90
37956;DHT22;23776;51.592;7.180;2022-07-29T08:32:30;20.70;99.90
37956;DHT22;23776;51.592;7.180;2022-07-29T08:34:56;20.80;99.90
37956;DHT22;23776;51.592;7.180;2022-07-29T08:37:22;20.60;99.90
37956;DHT22;23776;51.592;7.180;2022-07-29T08:39:47;20.70;99.90
37956;DHT22;23776;51.592;7.180;2022-07-29T08:42:13;20.90;99.90
37956;DHT22;23776;51.592;7.180;2022-07-29T08:44:39;21.00;33.10
37956;DHT22;23776;51.592;7.180;2022-07-29T08:47:05;21.00;13.00
37956;DHT22;23776;51.592;7.180;2022-07-29T08:49:33;21.10;1.00
37956;DHT22;23776;51.592;7.180;2022-07-29T08:52:00;21.00;99.90
37956;DHT22;23776;51.592;7.180;2022-07-29T08:54:27;21.00;1.00
37956;DHT22;23776;51.592;7.180;2022-07-29T08:56:53;20.90;1.00
37956;DHT22;23776;51.592;7.180;2022-07-29T08:59:22;20.80;1.00
37956;DHT22;23776;51.592;7.180;2022-07-29T09:01:48;20.70;1.00
37956;DHT22;23776;51.592;7.180;2022-07-29T09:04:16;20.70;1.00
37956;DHT22;23776;51.592;7.180;2022-07-29T09:06:44;20.70;1.70
37956;DHT22;23776;51.592;7.180;2022-07-29T09:09:11;20.70;27.90
37956;DHT22;23776;51.592;7.180;2022-07-29T09:11:39;20.70;99.90
37956;DHT22;23776;51.592;7.180;2022-07-29T09:14:05;20.70;64.50
37956;DHT22;23776;51.592;7.180;2022-07-29T09:16:49;20.70;1.00
37956;DHT22;23776;51.592;7.180;2022-07-29T09:19:22;20.70;99.90
37956;DHT22;23776;51.592;7.180;2022-07-29T09:21:47;20.70;99.90
37956;DHT22;23776;51.592;7.180;2022-07-29T09:27:17;20.70;99.90
37956;DHT22;23776;51.592;7.180;2022-07-29T09:29:44;20.60;99.90
37956;DHT22;23776;51.592;7.180;2022-07-29T09:32:10;20.60;99.90
37956;DHT22;23776;51.592;7.180;2022-07-29T09:34:36;20.50;1.00
37956;DHT22;23776;51.592;7.180;2022-07-29T09:37:02;20.30;1.00
37956;DHT22;23776;51.592;7.180;2022-07-29T09:39:37;20.20;1.00
37956;DHT22;23776;51.592;7.180;2022-07-29T09:42:05;20.20;1.00
37956;DHT22;23776;51.592;7.180;2022-07-29T09:44:48;19.90;1.00
37956;DHT22;23776;51.592;7.180;2022-07-29T09:47:15;19.90;1.00
37956;DHT22;23776;51.592;7.180;2022-07-29T09:49:53;19.80;1.00
37956;DHT22;23776;51.592;7.180;2022-07-29T09:52:19;19.70;1.00
37956;DHT22;23776;51.592;7.180;2022-07-29T09:54:46;19.70;1.00
37956;DHT22;23776;51.592;7.180;2022-07-29T09:57:26;19.60;1.00
37956;DHT22;23776;51.592;7.180;2022-07-29T10:00:01;19.50;1.00
37956;DHT22;23776;51.592;7.180;2022-07-29T10:02:32;19.60;6.40
37956;DHT22;23776;51.592;7.180;2022-07-29T10:04:58;19.40;1.00
37956;DHT22;23776;51.592;7.180;2022-07-29T10:07:24;19.30;1.00
37956;DHT22;23776;51.592;7.180;2022-07-29T10:09:55;19.30;1.00
37956;DHT22;23776;51.592;7.180;2022-07-29T10:12:21;19.20;1.00
37956;DHT22;23776;51.592;7.180;2022-07-29T10:14:47;19.20;1.00
37956;DHT22;23776;51.592;7.180;2022-07-29T10:17:13;19.20;99.90
37956;DHT22;23776;51.592;7.180;2022-07-29T10:19:39;19.10;99.90
37956;DHT22;23776;51.592;7.180;2022-07-29T10:22:07;19.10;99.90
37956;DHT22;23776;51.592;7.180;2022-07-29T10:24:34;19.00;1.00
37956;DHT22;23776;51.592;7.180;2022-07-29T10:27:02;19.00;1.00
37956;DHT22;23776;51.592;7.180;2022-07-29T10:29:28;19.00;1.00
37956;DHT22;23776;51.592;7.180;2022-07-29T10:34:51;18.80;99.90
37956;DHT22;23776;51.592;7.180;2022-07-29T10:40:22;18.80;1.00
37956;DHT22;23776;51.592;7.180;2022-07-29T10:43:21;18.90;1.00
37956;DHT22;23776;51.592;7.180;2022-07-29T10:45:48;18.90;1.00
37956;DHT22;23776;51.592;7.180;2022-07-29T10:48:15;18.80;1.00
37956;DHT22;23776;51.592;7.180;2022-07-29T10:51:00;18.80;1.00
37956;DHT22;23776;51.592;7.180;2022-07-29T10:53:49;18.90;1.00
37956;DHT22;23776;51.592;7.180;2022-07-29T10:56:27;18.80;1.00
37956;DHT22;23776;51.592;7.180;2022-07-29T11:01:51;18.90;1.00
37956;DHT22;23776;51.592;7.180;2022-07-29T11:07:08;19.10;1.00
37956;DHT22;23776;51.592;7.180;2022-07-29T11:09:33;19.20;1.00
37956;DHT22;23776;51.592;7.180;2022-07-29T11:12:00;19.20;1.00
37956;DHT22;23776;51.592;7.180;2022-07-29T11:14:57;19.30;1.00
37956;DHT22;23776;51.592;7.180;2022-07-29T11:17:24;19.40;1.00
37956;DHT22;23776;51.592;7.180;2022-07-29T11:19:50;19.40;1.00
37956;DHT22;23776;51.592;7.180;2022-07-29T11:22:37;19.50;1.00
37956;DHT22;23776;51.592;7.180;2022-07-29T11:25:16;19.50;99.90
37956;DHT22;23776;51.592;7.180;2022-07-29T11:27:43;19.50;99.90
37956;DHT22;23776;51.592;7.180;2022-07-29T11:30:09;19.60;99.90
37956;DHT22;23776;51.592;7.180;2022-07-29T11:32:39;19.70;1.00
37956;DHT22;23776;51.592;7.180;2022-07-29T11:35:25;20.20;99.90
37956;DHT22;23776;51.592;7.180;2022-07-29T11:41:19;20.70;99.90
37956;DHT22;23776;51.592;7.180;2022-07-29T11:46:43;21.70;99.90
37956;DHT22;23776;51.592;7.180;2022-07-29T11:49:09;22.30;99.90
37956;DHT22;23776;51.592;7.180;2022-07-29T11:51:38;22.80;69.60
37956;DHT22;23776;51.592;7.180;2022-07-29T11:54:05;23.10;99.90
37956;DHT22;23776;51.592;7.180;2022-07-29T11:56:34;23.30;3.90
37956;DHT22;23776;51.592;7.180;2022-07-29T11:59:05;23.50;1.00
37956;DHT22;23776;51.592;7.180;2022-07-29T12:01:31;23.70;1.00
37956;DHT22;23776;51.592;7.180;2022-07-29T12:04:07;23.90;99.90
37956;DHT22;23776;51.592;7.180;2022-07-29T12:06:34;24.00;99.90
37956;DHT22;23776;51.592;7.180;2022-07-29T12:09:00;24.10;10.30
37956;DHT22;23776;51.592;7.180;2022-07-29T12:11:26;24.40;27.70
37956;DHT22;23776;51.592;7.180;2022-07-29T12:13:53;24.60;99.90
37956;DHT22;23776;51.592;7.180;2022-07-29T12:16:20;24.80;99.90
37956;DHT22;23776;51.592;7.180;2022-07-29T12:19:15;25.00;99.90
37956;DHT22;23776;51.592;7.180;2022-07-29T12:21:48;25.40;99.90
37956;DHT22;23776;51.592;7.180;2022-07-29T12:24:14;25.70;99.90
37956;DHT22;23776;51.592;7.180;2022-07-29T12:26:55;26.00;1.00
37956;DHT22;23776;51.592;7.180;2022-07-29T12:29:21;26.20;1.00
37956;DHT22;23776;51.592;7.180;2022-07-29T12:31:51;26.30;1.00
37956;DHT22;23776;51.592;7.180;2022-07-29T12:34:20;26.60;99.90
37956;DHT22;23776;51.592;7.180;2022-07-29T12:36:48;27.10;99.90
37956;DHT22;23776;51.592;7.180;2022-07-29T12:39:16;27.70;99.90
37956;DHT22;23776;51.592;7.180;2022-07-29T12:41:42;28.30;99.90
37956;DHT22;23776;51.592;7.180;2022-07-29T12:44:08;28.90;99.90
37956;DHT22;23776;51.592;7.180;2022-07-29T12:46:34;29.40;99.90
37956;DHT22;23776;51.592;7.180;2022-07-29T12:48:59;29.50;99.90
37956;DHT22;23776;51.592;7.180;2022-07-29T12:51:39;29.30;87.80
37956;DHT22;23776;51.592;7.180;2022-07-29T12:54:13;29.00;80.00
37956;DHT22;23776;51.592;7.180;2022-07-29T12:56:40;29.10;84.70
37956;DHT22;23776;51.592;7.180;2022-07-29T12:59:17;28.90;75.00
37956;DHT22;23776;51.592;7.180;2022-07-29T13:01:44;28.60;85.50
37956;DHT22;23776;51.592;7.180;2022-07-29T13:04:10;28.60;90.00
37956;DHT22;23776;51.592;7.180;2022-07-29T13:06:40;28.60;83.60
37956;DHT22;23776;51.592;7.180;2022-07-29T13:09:18;28.60;83.30
37956;DHT22;23776;51.592;7.180;2022-07-29T13:11:50;28.60;78.30
37956;DHT22;23776;51.592;7.180;2022-07-29T13:14:34;28.70;81.00
37956;DHT22;23776;51.592;7.180;2022-07-29T13:17:09;28.40;48.20
37956;DHT22;23776;51.592;7.180;2022-07-29T13:19:52;28.20;62.40
37956;DHT22;23776;51.592;7.180;2022-07-29T13:22:23;28.20;62.80
37956;DHT22;23776;51.592;7.180;2022-07-29T13:25:00;28.20;56.70
37956;DHT22;23776;51.592;7.180;2022-07-29T13:27:33;28.10;64.50
37956;DHT22;23776;51.592;7.180;2022-07-29T13:30:00;28.00;63.00
37956;DHT22;23776;51.592;7.180;2022-07-29T13:32:29;28.00;57.60
37956;DHT22;23776;51.592;7.180;2022-07-29T13:34:59;28.00;58.10
37956;DHT22;23776;51.592;7.180;2022-07-29T13:37:26;30.10;41.00
37956;DHT22;23776;51.592;7.180;2022-07-29T13:39:55;28.40;49.50
37956;DHT22;23776;51.592;7.180;2022-07-29T13:42:22;28.40;45.60
37956;DHT22;23776;51.592;7.180;2022-07-29T13:44:48;28.30;47.60
37956;DHT22;23776;51.592;7.180;2022-07-29T13:47:16;28.20;51.00
37956;DHT22;23776;51.592;7.180;2022-07-29T13:49:42;28.00;47.60
37956;DHT22;23776;51.592;7.180;2022-07-29T13:52:07;28.00;51.10
37956;DHT22;23776;51.592;7.180;2022-07-29T13:54:33;28.00;39.90
37956;DHT22;23776;51.592;7.180;2022-07-29T13:57:03;28.10;43.60
37956;DHT22;23776;51.592;7.180;2022-07-29T13:59:28;28.20;34.20
37956;DHT22;23776;51.592;7.180;2022-07-29T14:01:54;28.70;37.70
37956;DHT22;23776;51.592;7.180;2022-07-29T14:04:19;29.80;28.90
37956;DHT22;23776;51.592;7.180;2022-07-29T14:06:45;30.80;26.10
37956;DHT22;23776;51.592;7.180;2022-07-29T14:09:11;31.90;22.30
37956;DHT22;23776;51.592;7.180;2022-07-29T14:11:36;32.60;19.00
37956;DHT22;23776;51.592;7.180;2022-07-29T14:14:04;33.20;8.70
37956;DHT22;23776;51.592;7.180;2022-07-29T14:16:29;33.80;9.90
37956;DHT22;23776;51.592;7.180;2022-07-29T14:18:55;34.20;7.90
37956;DHT22;23776;51.592;7.180;2022-07-29T14:21:20;34.90;1.00
37956;DHT22;23776;51.592;7.180;2022-07-29T14:23:46;35.60;1.00
37956;DHT22;23776;51.592;7.180;2022-07-29T14:26:13;36.30;1.00
37956;DHT22;23776;51.592;7.180;2022-07-29T14:28:38;36.80;1.00
37956;DHT22;23776;51.592;7.180;2022-07-29T14:31:04;37.10;1.00
37956;DHT22;23776;51.592;7.180;2022-07-29T14:33:30;37.90;1.00
37956;DHT22;23776;51.592;7.180;2022-07-29T14:35:55;37.70;1.00
37956;DHT22;23776;51.592;7.180;2022-07-29T14:38:21;38.50;1.00
37956;DHT22;23776;51.592;7.180;2022-07-29T14:40:47;38.80;1.00
37956;DHT22;23776;51.592;7.180;2022-07-29T14:43:15;38.80;1.00
37956;DHT22;23776;51.592;7.180;2022-07-29T14:45:41;39.20;1.00
37956;DHT22;23776;51.592;7.180;2022-07-29T14:48:07;39.70;1.00
37956;DHT22;23776;51.592;7.180;2022-07-29T14:50:33;39.90;1.00
37956;DHT22;23776;51.592;7.180;2022-07-29T14:52:59;39.50;1.00
37956;DHT22;23776;51.592;7.180;2022-07-29T14:55:25;39.10;1.00
37956;DHT22;23776;51.592;7.180;2022-07-29T14:57:51;38.80;1.00
37956;DHT22;23776;51.592;7.180;2022-07-29T15:00:17;39.00;1.00
37956;DHT22;23776;51.592;7.180;2022-07-29T15:02:43;38.70;1.00
37956;DHT22;23776;51.592;7.180;2022-07-29T15:05:09;38.90;1.00
37956;DHT22;23776;51.592;7.180;2022-07-29T15:07:34;38.90;1.00
37956;DHT22;23776;51.592;7.180;2022-07-29T15:10:00;39.00;1.00
37956;DHT22;23776;51.592;7.180;2022-07-29T15:12:26;39.00;1.00
37956;DHT22;23776;51.592;7.180;2022-07-29T15:14:51;39.10;1.00
37956;DHT22;23776;51.592;7.180;2022-07-29T15:17:17;39.20;1.00
37956;DHT22;23776;51.592;7.180;2022-07-29T15:19:42;39.10;1.00
37956;DHT22;23776;51.592;7.180;2022-07-29T15:22:08;39.20;1.00
37956;DHT22;23776;51.592;7.180;2022-07-29T15:24:34;38.20;1.00
37956;DHT22;23776;51.592;7.180;2022-07-29T15:26:59;38.20;1.00
37956;DHT22;23776;51.592;7.180;2022-07-29T15:29:25;38.40;1.00
37956;DHT22;23776;51.592;7.180;2022-07-29T15:31:51;38.70;1.00
37956;DHT22;23776;51.592;7.180;2022-07-29T15:34:16;38.80;1.00
37956;DHT22;23776;51.592;7.180;2022-07-29T15:36:42;39.00;1.00
37956;DHT22;23776;51.592;7.180;2022-07-29T15:39:08;39.20;1.00
37956;DHT22;23776;51.592;7.180;2022-07-29T15:41:34;39.80;1.00
37956;DHT22;23776;51.592;7.180;2022-07-29T15:44:00;40.50;1.00
37956;DHT22;23776;51.592;7.180;2022-07-29T15:46:26;40.90;1.00
37956;DHT22;23776;51.592;7.180;2022-07-29T15:49:10;41.30;1.00
37956;DHT22;23776;51.592;7.180;2022-07-29T15:51:35;41.40;1.00
37956;DHT22;23776;51.592;7.180;2022-07-29T15:54:02;41.50;1.00
37956;DHT22;23776;51.592;7.180;2022-07-29T15:56:28;41.00;1.00
37956;DHT22;23776;51.592;7.180;2022-07-29T15:58:54;40.70;1.00
37956;DHT22;23776;51.592;7.180;2022-07-29T16:01:20;41.10;1.00
37956;DHT22;23776;51.592;7.180;2022-07-29T16:03:45;41.60;1.00
37956;DHT22;23776;51.592;7.180;2022-07-29T16:06:12;42.00;1.00
37956;DHT22;23776;51.592;7.180;2022-07-29T16:08:37;42.00;1.00
37956;DHT22;23776;51.592;7.180;2022-07-29T16:11:03;41.20;1.00
37956;DHT22;23776;51.592;7.180;2022-07-29T16:13:28;40.60;1.00
37956;DHT22;23776;51.592;7.180;2022-07-29T16:15:54;40.30;1.00
37956;DHT22;23776;51.592;7.180;2022-07-29T16:18:20;40.10;1.00
37956;DHT22;23776;51.592;7.180;2022-07-29T16:20:45;40.00;1.00